Time;durP1;ratioP1;P1;durP2;ratioP2;P2;SDS_P1;SDS_P2;PMS_P1;PMS_P2;Temp;Humidity;BMP_temperature;BMP_pressure;BME280_temperature;BME280_humidity;BME280_pressure;Samples;Min_cycle;Max_cycle;Signal;HPM_P1;HPM_P2
2023/09/30 00:01:38;;;;;;;14.43;11.30;;;18.30;65.60;;;;;;5095626;28;20028;-67
2023/09/30 00:04:06;;;;;;;17.50;12.00;;;18.20;65.10;;;;;;5095646;28;20111;-66
2023/09/30 00:06:34;;;;;;;15.77;11.93;;;18.20;65.10;;;;;;5095625;28;20024;-68
2023/09/30 00:09:03;;;;;;;15.35;12.07;;;18.20;65.30;;;;;;5096192;28;20027;-69
2023/09/30 00:11:32;;;;;;;14.98;10.85;;;18.10;65.40;;;;;;5095461;28;20074;-64
2023/09/30 00:13:58;;;;;;;14.05;10.50;;;18.10;65.40;;;;;;5096164;28;20099;-66
2023/09/30 00:16:24;;;;;;;18.45;11.98;;;18.10;65.20;;;;;;5095493;28;20388;-66
2023/09/30 00:19:05;;;;;;;16.75;11.45;;;18.00;65.70;;;;;;5095738;28;20100;-64
2023/09/30 00:21:31;;;;;;;16.63;11.73;;;18.00;65.70;;;;;;5096108;28;20051;-67
2023/09/30 00:23:59;;;;;;;17.33;11.55;;;18.00;65.80;;;;;;5095485;28;20023;-68
2023/09/30 00:28:51;;;;;;;14.88;11.20;;;18.00;66.10;;;;;;5095987;28;20099;-66
2023/09/30 00:31:25;;;;;;;16.75;11.65;;;18.00;66.10;;;;;;5095657;28;20089;-65
2023/09/30 00:34:03;;;;;;;17.25;12.30;;;18.00;65.90;;;;;;5095961;28;20052;-67
2023/09/30 00:36:31;;;;;;;14.95;11.05;;;17.90;66.10;;;;;;5099142;28;20144;-67
2023/09/30 00:38:59;;;;;;;18.38;12.90;;;17.90;65.90;;;;;;5099638;28;20020;-65
2023/09/30 00:43:56;;;;;;;17.00;11.63;;;17.90;65.90;;;;;;5100229;28;20032;-63
2023/09/30 00:48:48;;;;;;;17.30;12.35;;;17.90;65.90;;;;;;5099861;28;20082;-65
2023/09/30 00:51:24;;;;;;;12.68;10.10;;;17.90;66.00;;;;;;5099263;28;20028;-66
2023/09/30 00:56:18;;;;;;;14.80;11.35;;;17.90;66.10;;;;;;5099223;28;20032;-68
2023/09/30 00:58:46;;;;;;;17.20;13.07;;;17.90;65.90;;;;;;5099311;28;20047;-66
2023/09/30 01:01:12;;;;;;;18.40;13.32;;;17.90;66.10;;;;;;5099088;28;20024;-65
2023/09/30 01:03:39;;;;;;;21.63;15.23;;;17.90;66.50;;;;;;5099068;28;20048;-67
2023/09/30 01:06:05;;;;;;;17.10;11.63;;;17.80;67.80;;;;;;5098289;28;20077;-65
2023/09/30 01:08:33;;;;;;;14.73;11.60;;;17.70;68.00;;;;;;5099245;28;20020;-66
2023/09/30 01:11:00;;;;;;;15.25;11.45;;;17.60;67.60;;;;;;5097993;28;20032;-65
2023/09/30 01:13:34;;;;;;;16.08;11.75;;;17.50;67.20;;;;;;5097864;28;20356;-66
2023/09/30 01:16:11;;;;;;;17.15;11.98;;;17.50;67.00;;;;;;5098699;28;20024;-67
2023/09/30 01:18:39;;;;;;;18.52;13.43;;;17.40;67.20;;;;;;5097747;28;20024;-68
2023/09/30 01:21:06;;;;;;;16.05;10.98;;;17.40;67.40;;;;;;5097739;28;20441;-65
2023/09/30 01:23:33;;;;;;;15.77;11.75;;;17.30;67.10;;;;;;5098700;28;20042;-64
2023/09/30 01:26:12;;;;;;;17.08;12.70;;;17.20;67.90;;;;;;5098781;28;20429;-64
2023/09/30 01:31:13;;;;;;;18.20;12.98;;;17.10;67.80;;;;;;5099343;28;20517;-65
2023/09/30 01:33:39;;;;;;;16.27;12.05;;;17.10;68.00;;;;;;5099060;28;20448;-63
2023/09/30 01:36:08;;;;;;;16.05;12.10;;;17.10;68.50;;;;;;5097056;28;20047;-66
2023/09/30 01:38:34;;;;;;;18.38;12.57;;;17.00;68.60;;;;;;5098267;28;20087;-63
2023/09/30 01:41:00;;;;;;;16.63;12.35;;;17.00;68.60;;;;;;5098621;28;20024;-65
2023/09/30 01:43:40;;;;;;;17.65;12.85;;;17.00;68.40;;;;;;5097330;28;20067;-64
2023/09/30 01:46:06;;;;;;;17.27;13.10;;;17.00;68.30;;;;;;5098241;28;20024;-69
2023/09/30 01:48:39;;;;;;;19.90;13.05;;;17.00;68.50;;;;;;5098723;28;20065;-63
2023/09/30 01:55:59;;;;;;;15.23;11.13;;;17.00;68.40;;;;;;5098538;28;20417;-65
2023/09/30 01:58:29;;;;;;;24.27;16.60;;;17.10;68.30;;;;;;5097937;28;20020;-65
2023/09/30 02:01:04;;;;;;;17.73;13.45;;;17.00;68.70;;;;;;5098227;28;20008;-64
2023/09/30 02:03:30;;;;;;;17.63;12.85;;;16.90;68.80;;;;;;5098233;28;20430;-65
2023/09/30 02:05:59;;;;;;;17.15;12.88;;;16.80;69.10;;;;;;5097670;28;20076;-63
2023/09/30 02:08:30;;;;;;;14.88;10.90;;;16.70;69.30;;;;;;5098077;28;20020;-63
2023/09/30 02:11:05;;;;;;;18.50;11.95;;;16.70;68.80;;;;;;5097676;28;20103;-65
2023/09/30 02:13:37;;;;;;;17.92;12.43;;;16.70;69.10;;;;;;5097913;28;20078;-66
2023/09/30 02:16:13;;;;;;;14.52;10.23;;;16.70;69.30;;;;;;5096631;28;20169;-62
2023/09/30 02:18:42;;;;;;;21.10;11.80;;;16.70;68.90;;;;;;5097477;28;20094;-64
2023/09/30 02:21:08;;;;;;;18.13;12.60;;;16.70;69.10;;;;;;5097825;28;20016;-65
2023/09/30 02:23:35;;;;;;;14.93;10.48;;;16.80;69.10;;;;;;5097811;28;20020;-64
2023/09/30 02:26:02;;;;;;;16.35;11.48;;;16.70;69.20;;;;;;5097639;28;20028;-65
2023/09/30 02:28:34;;;;;;;15.07;11.75;;;16.80;69.00;;;;;;5097970;28;20032;-64
2023/09/30 02:31:09;;;;;;;14.05;11.52;;;16.70;69.30;;;;;;5097162;28;20384;-63
2023/09/30 02:33:39;;;;;;;20.50;13.80;;;16.70;69.10;;;;;;5097668;28;20051;-64
2023/09/30 02:36:15;;;;;;;17.55;13.45;;;16.80;69.20;;;;;;5095325;28;20058;-63
2023/09/30 02:38:54;;;;;;;16.75;12.52;;;16.70;69.40;;;;;;5097130;28;20030;-66
2023/09/30 02:41:20;;;;;;;17.58;13.02;;;16.60;69.70;;;;;;5097090;28;20095;-64
2023/09/30 02:43:46;;;;;;;16.08;11.55;;;16.60;69.70;;;;;;5096139;28;20093;-63
2023/09/30 02:46:12;;;;;;;15.85;11.88;;;16.60;70.00;;;;;;5097230;28;20130;-66
2023/09/30 02:48:39;;;;;;;16.05;12.60;;;16.60;70.20;;;;;;5097559;28;20024;-62
2023/09/30 02:51:10;;;;;;;17.38;12.57;;;16.70;70.80;;;;;;5096979;28;20024;-66
2023/09/30 02:53:42;;;;;;;22.10;14.77;;;16.80;69.90;;;;;;5096921;28;20107;-67
2023/09/30 02:56:09;;;;;;;20.20;12.68;;;16.80;69.60;;;;;;5096753;28;20024;-66
2023/09/30 02:58:43;;;;;;;19.42;13.35;;;16.90;70.50;;;;;;5096346;28;20039;-65
2023/09/30 03:01:09;;;;;;;17.30;12.75;;;16.90;69.90;;;;;;5096804;28;20379;-65
2023/09/30 03:03:35;;;;;;;14.82;10.90;;;17.00;69.30;;;;;;5096756;28;20494;-67
2023/09/30 03:06:01;;;;;;;18.38;12.93;;;17.00;69.10;;;;;;5096683;28;20069;-65
2023/09/30 03:08:32;;;;;;;18.50;12.85;;;17.00;69.20;;;;;;5097193;28;20028;-63
2023/09/30 03:10:58;;;;;;;16.00;12.25;;;16.90;69.30;;;;;;5096827;28;20310;-65
2023/09/30 03:13:28;;;;;;;19.58;12.95;;;16.90;69.40;;;;;;5097101;28;20035;-64
2023/09/30 03:15:56;;;;;;;16.38;12.18;;;16.80;69.50;;;;;;5096739;28;20020;-64
2023/09/30 03:20:50;;;;;;;18.17;12.45;;;16.80;70.10;;;;;;5096890;28;20111;-65
2023/09/30 03:23:16;;;;;;;18.05;12.27;;;16.90;70.10;;;;;;5096255;28;20401;-64
2023/09/30 03:25:46;;;;;;;18.55;12.32;;;16.80;70.10;;;;;;5096531;28;20052;-68
2023/09/30 03:28:12;;;;;;;17.35;11.10;;;16.90;70.00;;;;;;5096254;28;20357;-66
2023/09/30 03:30:48;;;;;;;15.05;11.55;;;16.90;70.30;;;;;;5096193;28;20016;-64
2023/09/30 03:33:22;;;;;;;14.13;10.23;;;16.90;70.20;;;;;;5096436;28;20081;-65
2023/09/30 03:36:03;;;;;;;17.40;11.70;;;16.90;70.10;;;;;;5096056;28;20020;-66
2023/09/30 03:38:33;;;;;;;18.45;12.30;;;17.00;70.60;;;;;;5095984;28;20068;-67
2023/09/30 03:41:02;;;;;;;16.25;12.23;;;16.90;70.70;;;;;;5096649;28;20024;-64
2023/09/30 03:43:28;;;;;;;15.52;12.18;;;17.00;70.60;;;;;;5096340;28;20044;-63
2023/09/30 03:45:55;;;;;;;16.20;12.57;;;16.90;70.70;;;;;;5096177;28;20051;-69
2023/09/30 03:48:21;;;;;;;16.83;11.50;;;16.90;70.70;;;;;;5096177;28;20020;-65
2023/09/30 03:51:28;;;;;;;15.63;11.48;;;17.00;70.70;;;;;;5095925;28;20028;-66
2023/09/30 03:53:54;;;;;;;17.05;11.80;;;17.00;71.00;;;;;;5014459;28;20029;-67
2023/09/30 03:56:41;;;;;;;15.70;11.88;;;17.10;70.80;;;;;;5014339;28;20414;-63
2023/09/30 03:59:14;;;;;;;15.82;12.02;;;17.10;71.00;;;;;;5014006;28;20549;-68
2023/09/30 04:01:40;;;;;;;16.83;12.83;;;17.20;70.60;;;;;;5014707;28;20037;-64
2023/09/30 04:04:08;;;;;;;17.65;11.90;;;17.20;70.90;;;;;;4981436;28;20036;-64
2023/09/30 04:06:37;;;;;;;15.77;11.57;;;17.20;70.90;;;;;;5013927;28;20034;-66
2023/09/30 04:09:09;;;;;;;16.45;11.82;;;17.30;70.90;;;;;;4996937;28;20034;-64
2023/09/30 04:11:36;;;;;;;14.30;10.20;;;17.30;71.00;;;;;;4982197;28;20029;-65
2023/09/30 04:14:08;;;;;;;15.40;11.63;;;17.30;71.10;;;;;;4997520;28;20038;-64
2023/09/30 04:16:48;;;;;;;15.40;11.90;;;17.40;70.80;;;;;;5013960;28;20022;-65
2023/09/30 04:19:14;;;;;;;18.55;12.48;;;17.40;70.80;;;;;;5013768;28;20029;-65
2023/09/30 04:21:43;;;;;;;17.45;12.77;;;17.50;70.80;;;;;;5014594;28;20041;-66
2023/09/30 04:24:22;;;;;;;15.18;11.38;;;17.50;70.50;;;;;;5013919;28;20527;-64
2023/09/30 04:26:56;;;;;;;18.90;12.05;;;17.50;70.70;;;;;;5022697;28;20026;-65
2023/09/30 04:29:24;;;;;;;16.65;11.93;;;17.40;70.60;;;;;;5095412;28;20107;-66
2023/09/30 04:31:52;;;;;;;16.75;11.65;;;17.50;70.90;;;;;;5095991;28;20043;-65
2023/09/30 04:34:21;;;;;;;15.82;11.45;;;17.40;70.70;;;;;;5095389;28;20051;-67
2023/09/30 04:37:03;;;;;;;15.32;11.75;;;17.40;70.60;;;;;;5092986;28;20129;-66
2023/09/30 04:39:35;;;;;;;17.02;11.75;;;17.40;71.00;;;;;;5095393;28;20094;-64
2023/09/30 04:42:01;;;;;;;15.60;11.30;;;17.40;70.70;;;;;;5095185;28;20525;-65
2023/09/30 04:52:27;;;;;;;16.67;11.52;;;17.40;71.00;;;;;;5096057;28;20047;-63
2023/09/30 04:54:54;;;;;;;18.15;12.88;;;17.30;70.50;;;;;;5095039;28;20479;-67
2023/09/30 04:57:20;;;;;;;17.58;12.10;;;17.30;70.80;;;;;;5095189;28;20025;-64
2023/09/30 04:59:46;;;;;;;16.92;11.43;;;17.20;70.90;;;;;;5094167;28;20407;-66
2023/09/30 05:02:21;;;;;;;17.88;12.57;;;17.20;70.80;;;;;;5095173;28;20020;-65
2023/09/30 05:04:52;;;;;;;16.88;11.95;;;17.20;70.80;;;;;;5095670;28;20348;-64
2023/09/30 05:07:21;;;;;;;17.10;11.65;;;17.20;71.00;;;;;;5094912;28;20059;-64
2023/09/30 05:09:48;;;;;;;14.52;10.15;;;17.30;70.90;;;;;;5094559;28;20093;-62
2023/09/30 05:12:16;;;;;;;13.88;10.63;;;17.30;71.00;;;;;;5094063;28;20063;-65
2023/09/30 05:17:08;;;;;;;16.05;11.20;;;17.30;71.20;;;;;;5095519;28;20120;-65
2023/09/30 05:19:36;;;;;;;15.77;10.50;;;17.30;71.10;;;;;;5095063;28;20020;-64
2023/09/30 05:22:02;;;;;;;13.88;10.35;;;17.30;71.00;;;;;;5098179;28;20024;-68
2023/09/30 05:24:29;;;;;;;18.17;11.77;;;17.30;71.10;;;;;;5098890;28;20487;-68
2023/09/30 05:29:20;;;;;;;16.25;11.82;;;17.20;71.10;;;;;;5099366;28;20425;-65
2023/09/30 05:31:46;;;;;;;15.63;12.00;;;17.20;70.70;;;;;;5098552;28;20046;-65
2023/09/30 05:34:12;;;;;;;17.80;11.85;;;17.10;71.10;;;;;;5097824;28;20028;-63
2023/09/30 05:41:39;;;;;;;14.25;10.43;;;17.10;71.30;;;;;;5098881;28;20081;-64
2023/09/30 05:44:07;;;;;;;17.08;10.27;;;17.20;71.40;;;;;;5098575;28;20028;-65
2023/09/30 05:46:34;;;;;;;17.67;10.75;;;17.30;71.50;;;;;;5097382;28;20571;-65
2023/09/30 05:49:01;;;;;;;14.30;10.45;;;17.40;71.50;;;;;;5098757;28;20031;-64
2023/09/30 05:51:28;;;;;;;14.48;10.77;;;17.60;71.40;;;;;;5098104;28;20514;-65
2023/09/30 05:53:55;;;;;;;15.73;10.85;;;17.90;71.60;;;;;;5097781;28;20032;-68
2023/09/30 05:56:23;;;;;;;19.00;10.95;;;18.10;71.90;;;;;;5097957;28;20096;-63
2023/09/30 05:58:52;;;;;;;13.93;10.32;;;18.50;71.50;;;;;;5098459;28;20405;-66
2023/09/30 06:01:21;;;;;;;14.85;10.25;;;18.80;70.90;;;;;;5097977;28;20033;-62
2023/09/30 06:06:22;;;;;;;14.20;10.02;;;19.50;69.60;;;;;;5098555;28;20036;-64
2023/09/30 06:08:51;;;;;;;15.75;10.50;;;19.90;69.20;;;;;;5098060;28;20103;-65
2023/09/30 06:11:24;;;;;;;13.75;9.80;;;20.30;68.40;;;;;;5098205;28;20430;-66
2023/09/30 06:13:53;;;;;;;13.10;9.83;;;20.60;67.50;;;;;;5098282;28;20024;-67
2023/09/30 06:16:19;;;;;;;14.55;9.43;;;21.00;67.10;;;;;;5097642;28;20457;-68
2023/09/30 06:18:46;;;;;;;14.43;9.38;;;21.40;66.00;;;;;;5097258;28;20028;-68
2023/09/30 06:21:17;;;;;;;11.50;8.52;;;21.70;65.20;;;;;;5096565;28;20034;-68
2023/09/30 06:23:43;;;;;;;11.98;8.40;;;22.10;64.10;;;;;;5097522;28;20020;-66
2023/09/30 06:26:09;;;;;;;47.47;12.95;;;22.30;63.50;;;;;;5097574;28;20070;-68
2023/09/30 06:28:46;;;;;;;14.43;8.10;;;22.30;62.50;;;;;;5097492;28;20025;-66
2023/09/30 06:31:27;;;;;;;13.13;9.13;;;22.30;62.10;;;;;;5097556;28;20024;-64
2023/09/30 06:34:04;;;;;;;11.65;8.15;;;22.10;62.00;;;;;;5096283;28;20357;-65
2023/09/30 06:36:30;;;;;;;12.30;8.90;;;22.00;61.80;;;;;;5096250;28;20020;-64
2023/09/30 06:38:59;;;;;;;12.35;9.13;;;22.00;62.20;;;;;;5097649;28;20039;-66
2023/09/30 06:41:39;;;;;;;16.02;10.10;;;22.00;62.20;;;;;;5079403;28;20031;-63
2023/09/30 06:44:06;;;;;;;13.40;9.50;;;22.20;61.90;;;;;;5097645;28;20341;-68
2023/09/30 06:46:36;;;;;;;14.48;10.00;;;22.40;61.70;;;;;;5097227;28;20026;-64
2023/09/30 06:51:27;;;;;;;11.32;8.18;;;22.80;61.20;;;;;;5097474;28;20336;-65
2023/09/30 06:54:07;;;;;;;12.95;8.90;;;23.00;60.60;;;;;;5096896;28;20066;-65
2023/09/30 06:56:37;;;;;;;13.90;8.80;;;23.20;60.00;;;;;;5095764;28;20039;-67
2023/09/30 06:59:06;;;;;;;12.88;8.75;;;23.40;59.80;;;;;;5096739;28;20050;-64
2023/09/30 07:01:36;;;;;;;11.23;8.18;;;23.60;59.00;;;;;;5096949;28;20020;-66
2023/09/30 07:04:11;;;;;;;13.13;8.13;;;23.80;58.50;;;;;;5096661;28;20036;-65
2023/09/30 07:11:41;;;;;;;9.55;6.85;;;24.10;56.50;;;;;;5097148;28;20024;-65
2023/09/30 07:14:11;;;;;;;9.23;6.57;;;24.20;56.30;;;;;;5097081;28;20024;-65
2023/09/30 07:16:39;;;;;;;11.23;6.97;;;24.30;55.70;;;;;;5096360;28;20081;-64
2023/09/30 07:19:07;;;;;;;11.10;7.10;;;24.40;55.50;;;;;;5096285;28;20047;-64
2023/09/30 07:21:35;;;;;;;10.73;6.72;;;24.60;55.30;;;;;;5096437;28;20070;-63
2023/09/30 07:24:01;;;;;;;10.32;7.13;;;24.70;55.40;;;;;;5096839;28;20056;-67
2023/09/30 07:26:28;;;;;;;9.05;6.22;;;24.70;55.30;;;;;;5096276;28;20453;-67
2023/09/30 07:28:56;;;;;;;9.88;6.32;;;24.90;55.20;;;;;;5096225;28;20032;-63
2023/09/30 07:31:38;;;;;;;9.00;6.10;;;24.90;55.10;;;;;;5096229;28;20475;-67
2023/09/30 07:34:06;;;;;;;11.05;7.00;;;25.10;55.10;;;;;;5096213;28;20074;-68
2023/09/30 07:36:33;;;;;;;9.50;6.28;;;25.10;55.00;;;;;;5096019;28;20028;-63
2023/09/30 07:39:01;;;;;;;9.80;6.00;;;25.20;54.80;;;;;;5096609;28;20038;-67
2023/09/30 07:41:27;;;;;;;11.63;7.03;;;25.30;54.90;;;;;;5096045;28;20020;-63
2023/09/30 07:43:59;;;;;;;8.50;5.90;;;25.40;54.70;;;;;;5095790;28;20083;-67
2023/09/30 07:46:34;;;;;;;9.77;6.43;;;25.40;54.40;;;;;;5095916;28;20016;-67
2023/09/30 07:49:03;;;;;;;10.85;6.57;;;25.50;53.90;;;;;;5095893;28;20032;-63
2023/09/30 07:51:32;;;;;;;9.07;6.47;;;25.50;54.10;;;;;;5095778;28;20059;-65
2023/09/30 07:54:02;;;;;;;8.73;6.30;;;25.60;54.00;;;;;;5096413;28;20491;-64
2023/09/30 07:56:30;;;;;;;8.20;6.13;;;25.70;53.90;;;;;;5095597;28;20028;-63
2023/09/30 07:58:56;;;;;;;8.68;6.20;;;25.70;53.60;;;;;;5095736;28;20040;-64
2023/09/30 08:01:29;;;;;;;11.30;7.22;;;25.70;53.50;;;;;;5095992;28;20020;-67
2023/09/30 08:06:23;;;;;;;10.40;6.40;;;25.70;51.60;;;;;;5096017;28;19915;-67
2023/09/30 08:08:49;;;;;;;9.40;6.18;;;25.80;53.00;;;;;;5095559;28;20476;-65
2023/09/30 08:11:20;;;;;;;9.90;6.75;;;25.80;53.00;;;;;;5095627;28;20034;-66
2023/09/30 08:13:47;;;;;;;8.82;6.05;;;25.90;52.70;;;;;;5096144;28;20070;-66
2023/09/30 08:16:25;;;;;;;9.95;6.47;;;25.90;52.90;;;;;;5095593;28;20065;-63
2023/09/30 08:18:54;;;;;;;8.82;6.07;;;25.90;52.70;;;;;;5095468;28;20457;-63
2023/09/30 08:21:21;;;;;;;10.27;6.65;;;25.90;52.80;;;;;;5095990;28;20025;-64
2023/09/30 08:26:15;;;;;;;8.00;6.20;;;25.90;52.40;;;;;;5095600;28;20120;-67
2023/09/30 08:28:41;;;;;;;10.05;6.80;;;25.90;52.30;;;;;;5095438;28;20095;-65
2023/09/30 08:31:09;;;;;;;8.95;6.25;;;26.00;52.60;;;;;;5095963;28;20032;-63
2023/09/30 08:33:45;;;;;;;8.95;6.05;;;26.00;52.40;;;;;;5095330;28;20024;-63
2023/09/30 08:36:14;;;;;;;7.53;6.30;;;26.00;52.20;;;;;;5095433;28;20357;-65
2023/09/30 08:38:42;;;;;;;10.77;6.20;;;26.00;52.30;;;;;;5094990;28;20044;-66
2023/09/30 08:43:42;;;;;;;7.47;5.93;;;25.90;52.00;;;;;;5096184;28;20024;-65
2023/09/30 08:46:14;;;;;;;9.32;6.32;;;26.00;52.00;;;;;;5095364;28;20028;-64
2023/09/30 08:48:44;;;;;;;9.77;6.75;;;26.00;51.80;;;;;;5095978;28;20119;-63
2023/09/30 08:51:12;;;;;;;9.02;6.03;;;26.00;51.90;;;;;;5095802;28;20044;-66
2023/09/30 08:53:41;;;;;;;9.05;6.18;;;26.00;52.20;;;;;;5095218;28;20054;-66
2023/09/30 08:56:17;;;;;;;9.48;6.28;;;26.10;52.00;;;;;;5096704;28;20031;-63
2023/09/30 08:58:46;;;;;;;8.80;6.35;;;26.20;51.80;;;;;;5099684;28;20016;-65
2023/09/30 09:01:16;;;;;;;10.20;6.43;;;26.20;51.90;;;;;;5099159;28;20016;-64
2023/09/30 09:03:52;;;;;;;13.80;7.60;;;26.20;51.60;;;;;;5099643;28;20085;-68
2023/09/30 09:08:52;;;;;;;10.95;7.32;;;26.20;51.40;;;;;;5099851;28;20027;-65
2023/09/30 09:11:26;;;;;;;12.60;7.90;;;26.10;51.30;;;;;;5098915;28;20060;-65
2023/09/30 09:13:55;;;;;;;11.43;7.82;;;26.00;50.80;;;;;;5097612;28;20024;-65
2023/09/30 09:16:23;;;;;;;11.05;7.07;;;25.90;51.30;;;;;;5098683;28;20028;-65
2023/09/30 09:18:50;;;;;;;12.07;8.00;;;25.90;51.50;;;;;;5098678;28;20445;-64
2023/09/30 09:21:20;;;;;;;13.88;7.22;;;25.90;51.90;;;;;;5099303;28;20024;-66
2023/09/30 09:23:48;;;;;;;12.57;7.43;;;25.90;51.90;;;;;;5081340;28;20070;-66
2023/09/30 09:28:45;;;;;;;11.68;7.18;;;26.00;52.10;;;;;;5099472;28;20023;-64
2023/09/30 09:33:37;;;;;;;11.15;7.80;;;26.10;51.70;;;;;;5099092;28;20020;-66
2023/09/30 09:36:10;;;;;;;10.88;6.65;;;26.20;51.80;;;;;;5098333;28;20036;-66
2023/09/30 09:38:54;;;;;;;11.02;7.40;;;26.20;51.40;;;;;;5098298;28;20457;-63
2023/09/30 09:41:21;;;;;;;10.82;6.78;;;26.30;50.60;;;;;;5080609;28;20424;-66
2023/09/30 09:43:52;;;;;;;8.68;6.53;;;26.30;51.60;;;;;;5098234;28;20460;-67
2023/09/30 09:46:50;;;;;;;9.93;7.53;;;26.30;51.50;;;;;;5098409;28;20020;-65
2023/09/30 09:49:21;;;;;;;8.77;6.35;;;26.30;50.40;;;;;;5098145;28;20052;-67
2023/09/30 09:52:04;;;;;;;12.23;7.82;;;26.30;51.10;;;;;;5098118;28;20441;-64
2023/09/30 09:54:31;;;;;;;11.13;8.02;;;26.20;50.90;;;;;;5098039;28;20039;-64
2023/09/30 09:59:27;;;;;;;10.73;7.40;;;26.30;51.20;;;;;;5098731;28;20063;-66
2023/09/30 10:01:55;;;;;;;10.02;6.90;;;26.30;51.10;;;;;;5097982;28;20054;-65
2023/09/30 10:04:21;;;;;;;9.55;7.40;;;26.30;51.00;;;;;;5097880;28;20449;-67
2023/09/30 10:09:32;;;;;;;11.82;7.10;;;26.30;50.40;;;;;;5098411;28;20032;-65
2023/09/30 10:12:01;;;;;;;10.50;7.28;;;26.30;50.70;;;;;;5097652;28;20031;-64
2023/09/30 10:16:55;;;;;;;12.38;7.35;;;26.40;50.80;;;;;;5098197;28;20333;-65
2023/09/30 10:19:27;;;;;;;11.43;7.75;;;26.50;50.60;;;;;;5097572;28;20035;-65
2023/09/30 10:22:22;;;;;;;12.15;7.80;;;26.60;50.10;;;;;;5097496;28;20047;-67
2023/09/30 10:24:49;;;;;;;8.93;6.95;;;26.50;49.40;;;;;;5097743;28;20058;-65
2023/09/30 10:27:24;;;;;;;12.88;7.70;;;26.50;50.20;;;;;;5096616;28;20190;-65
2023/09/30 10:30:05;;;;;;;10.38;7.82;;;26.50;50.00;;;;;;5096446;28;20188;-66
2023/09/30 10:32:50;;;;;;;13.10;8.70;;;26.60;49.30;;;;;;5096394;28;20047;-64
2023/09/30 10:35:32;;;;;;;11.50;7.63;;;26.50;48.50;;;;;;5097598;28;20043;-66
2023/09/30 10:40:50;;;;;;;10.48;7.72;;;26.50;49.50;;;;;;5097528;28;20046;-63
2023/09/30 10:43:32;;;;;;;11.43;8.00;;;26.50;49.70;;;;;;5097142;28;20453;-64
2023/09/30 10:46:02;;;;;;;11.40;7.97;;;26.50;48.90;;;;;;5096076;28;20051;-63
2023/09/30 10:48:34;;;;;;;15.38;9.00;;;26.50;49.10;;;;;;5097639;28;20448;-63
2023/09/30 10:51:12;;;;;;;13.18;8.05;;;26.40;48.70;;;;;;5096961;28;20028;-68
2023/09/30 10:54:00;;;;;;;13.30;7.88;;;26.30;49.00;;;;;;5096971;28;20115;-69
2023/09/30 10:56:40;;;;;;;10.77;7.30;;;26.40;49.00;;;;;;5096800;28;20078;-65
2023/09/30 10:59:06;;;;;;;11.93;8.38;;;26.40;49.40;;;;;;5097373;28;20024;-66
2023/09/30 11:01:36;;;;;;;16.42;8.20;;;26.50;49.30;;;;;;5096012;28;20081;-64
2023/09/30 11:04:05;;;;;;;10.77;7.60;;;26.50;49.10;;;;;;5097054;28;20027;-67
2023/09/30 11:06:32;;;;;;;11.68;8.13;;;26.60;49.00;;;;;;5096651;28;20012;-67
2023/09/30 11:09:00;;;;;;;11.40;7.90;;;26.60;48.50;;;;;;5097210;28;20032;-67
2023/09/30 11:11:56;;;;;;;12.68;8.40;;;26.60;48.60;;;;;;5096922;28;20567;-64
2023/09/30 11:14:26;;;;;;;10.60;7.68;;;26.60;47.20;;;;;;5034919;28;20040;-66
2023/09/30 11:16:53;;;;;;;16.63;8.32;;;26.50;47.70;;;;;;5034608;28;20417;-68
2023/09/30 11:19:55;;;;;;;14.50;8.23;;;26.50;47.70;;;;;;5034142;28;20045;-67
2023/09/30 11:22:28;;;;;;;11.23;7.20;;;26.50;47.90;;;;;;5034295;28;20029;-67
2023/09/30 11:25:03;;;;;;;13.15;8.63;;;26.50;48.10;;;;;;5035086;28;20029;-64
2023/09/30 11:27:33;;;;;;;12.32;8.07;;;26.50;47.80;;;;;;5034320;28;20112;-66
2023/09/30 11:30:09;;;;;;;10.48;7.63;;;26.60;47.90;;;;;;5034337;28;20090;-65
2023/09/30 11:32:38;;;;;;;12.48;7.90;;;26.60;48.10;;;;;;5034548;28;20068;-63
2023/09/30 11:35:27;;;;;;;12.50;8.50;;;26.70;48.20;;;;;;5034140;28;20464;-65
2023/09/30 11:37:55;;;;;;;11.68;8.32;;;26.70;47.40;;;;;;5034190;28;20135;-65
2023/09/30 11:40:23;;;;;;;15.15;9.23;;;26.70;47.70;;;;;;5034223;28;20592;-67
2023/09/30 11:43:07;;;;;;;15.23;9.18;;;26.50;47.70;;;;;;5017683;28;20108;-67
2023/09/30 11:45:43;;;;;;;13.55;9.35;;;26.50;47.30;;;;;;5034080;28;20041;-65
2023/09/30 11:48:22;;;;;;;10.48;8.15;;;26.50;47.60;;;;;;5034010;28;20474;-64
2023/09/30 11:51:03;;;;;;;14.02;8.85;;;26.60;47.50;;;;;;5059171;28;20042;-64
2023/09/30 11:53:36;;;;;;;12.90;7.88;;;26.70;47.60;;;;;;5095846;28;20081;-64
2023/09/30 11:56:03;;;;;;;12.43;8.48;;;26.70;47.80;;;;;;5096029;28;20038;-66
2023/09/30 11:58:39;;;;;;;12.27;8.63;;;26.70;47.50;;;;;;5096003;28;20020;-64
2023/09/30 12:01:06;;;;;;;15.27;9.15;;;26.70;47.70;;;;;;5095634;28;20035;-64
2023/09/30 12:03:43;;;;;;;16.00;8.52;;;26.60;47.80;;;;;;5095658;28;20106;-67
2023/09/30 12:06:13;;;;;;;12.18;8.45;;;26.60;48.00;;;;;;5096150;28;20042;-64
2023/09/30 12:08:57;;;;;;;13.88;8.65;;;26.60;48.00;;;;;;5095817;28;20027;-64
2023/09/30 12:11:29;;;;;;;16.38;8.70;;;26.60;47.90;;;;;;5095870;28;20066;-63
2023/09/30 12:13:56;;;;;;;11.55;8.27;;;26.60;47.70;;;;;;5095834;28;20028;-63
2023/09/30 12:16:32;;;;;;;14.98;8.13;;;26.60;47.70;;;;;;5095460;28;20031;-69
2023/09/30 12:19:01;;;;;;;12.65;7.32;;;26.70;47.40;;;;;;5095390;28;20073;-66
2023/09/30 12:21:36;;;;;;;12.20;7.97;;;26.80;47.50;;;;;;5095505;28;20081;-65
2023/09/30 12:24:03;;;;;;;12.20;8.32;;;26.90;47.00;;;;;;5095404;28;20338;-68
2023/09/30 12:26:36;;;;;;;15.00;8.20;;;26.90;46.90;;;;;;5095485;28;20074;-65
2023/09/30 12:29:11;;;;;;;15.90;8.88;;;26.80;47.30;;;;;;5095774;28;20039;-65
2023/09/30 12:31:47;;;;;;;13.13;8.38;;;26.90;46.80;;;;;;5097934;28;20445;-67
2023/09/30 12:34:14;;;;;;;17.02;9.23;;;26.80;46.90;;;;;;5099682;28;20058;-64
2023/09/30 12:36:41;;;;;;;13.18;8.80;;;26.80;47.10;;;;;;5099297;28;20020;-67
2023/09/30 12:39:12;;;;;;;15.27;8.02;;;26.80;47.20;;;;;;5099838;28;20046;-62
2023/09/30 12:41:42;;;;;;;14.80;8.15;;;26.90;47.40;;;;;;5099822;28;20035;-66
2023/09/30 12:44:17;;;;;;;13.23;8.52;;;27.00;47.20;;;;;;5099482;28;20028;-66
2023/09/30 12:46:44;;;;;;;11.00;7.57;;;27.10;46.40;;;;;;5099392;28;20020;-64
2023/09/30 12:49:18;;;;;;;14.85;9.00;;;27.10;46.90;;;;;;5099921;28;20103;-64
2023/09/30 12:51:46;;;;;;;12.93;8.32;;;27.10;46.50;;;;;;5099266;28;20497;-68
2023/09/30 12:54:18;;;;;;;14.13;8.02;;;27.00;47.00;;;;;;5099544;28;20034;-63
2023/09/30 12:56:45;;;;;;;13.80;8.43;;;27.00;47.00;;;;;;5099137;28;20024;-64
2023/09/30 12:59:11;;;;;;;12.63;8.60;;;27.00;46.90;;;;;;5099624;28;20024;-66
2023/09/30 13:01:37;;;;;;;10.48;7.53;;;27.00;46.80;;;;;;5098124;28;20016;-63
2023/09/30 13:04:08;;;;;;;12.05;7.90;;;27.00;46.90;;;;;;5099364;28;20035;-64
2023/09/30 13:06:37;;;;;;;11.23;7.30;;;26.90;46.70;;;;;;5098977;28;20020;-68
2023/09/30 13:09:11;;;;;;;12.80;8.32;;;27.00;46.70;;;;;;5099021;28;20030;-65
2023/09/30 13:11:41;;;;;;;14.27;8.15;;;27.00;46.00;;;;;;5099210;28;20095;-64
2023/09/30 13:14:12;;;;;;;11.05;7.65;;;26.90;46.20;;;;;;5099165;28;20437;-66
2023/09/30 13:21:30;;;;;;;10.95;8.10;;;27.00;45.90;;;;;;5099352;28;20039;-67
2023/09/30 13:24:06;;;;;;;11.52;7.60;;;27.00;45.60;;;;;;5098734;28;20016;-68
2023/09/30 13:26:35;;;;;;;11.10;7.70;;;27.00;45.70;;;;;;5098872;28;20020;-61
2023/09/30 13:29:09;;;;;;;11.93;7.82;;;27.00;45.80;;;;;;5098593;28;20012;-66
2023/09/30 13:34:05;;;;;;;11.35;7.93;;;27.10;45.60;;;;;;5099090;28;20039;-63
2023/09/30 13:36:31;;;;;;;12.63;8.15;;;27.00;45.50;;;;;;5098280;28;20058;-63
2023/09/30 13:39:00;;;;;;;13.15;8.10;;;26.90;45.20;;;;;;5097813;28;20016;-65
2023/09/30 13:41:36;;;;;;;11.88;8.20;;;26.90;45.60;;;;;;5098136;28;20065;-64
2023/09/30 13:44:06;;;;;;;17.92;8.48;;;26.90;45.50;;;;;;5098311;28;20032;-65
2023/09/30 13:46:37;;;;;;;11.32;7.53;;;27.00;45.50;;;;;;5098195;28;20025;-66
2023/09/30 13:49:19;;;;;;;10.48;7.55;;;27.00;45.40;;;;;;5098745;28;20031;-67
2023/09/30 13:54:14;;;;;;;8.52;6.10;;;27.00;45.00;;;;;;5098636;28;20050;-62
2023/09/30 13:56:40;;;;;;;8.40;6.05;;;27.10;44.80;;;;;;5097922;28;20449;-63
2023/09/30 13:59:16;;;;;;;9.68;6.45;;;27.20;44.80;;;;;;5098025;28;20122;-66
2023/09/30 14:01:42;;;;;;;10.65;6.50;;;27.30;44.50;;;;;;5098241;28;20020;-64
2023/09/30 14:04:10;;;;;;;9.02;6.13;;;27.30;44.50;;;;;;5097939;28;20016;-65
2023/09/30 14:06:36;;;;;;;10.63;6.18;;;27.30;44.60;;;;;;5097846;28;20039;-65
2023/09/30 14:11:30;;;;;;;13.63;7.15;;;27.30;44.60;;;;;;5098603;28;20088;-67
2023/09/30 14:14:00;;;;;;;9.65;7.18;;;27.20;44.60;;;;;;5097977;28;20028;-66
2023/09/30 14:16:37;;;;;;;10.18;6.05;;;27.10;44.50;;;;;;5097797;28;20107;-63